createdAt,value
2017-03-07T00:00:03.464Z,1007.68
2017-03-07T00:05:03.490Z,1007.69
2017-03-07T00:10:03.459Z,1007.77
2017-03-07T00:15:03.263Z,1007.84
2017-03-07T00:20:03.027Z,1007.92
2017-03-07T00:25:03.713Z,1007.99
2017-03-07T00:30:03.600Z,1008.07
2017-03-07T00:35:03.502Z,1008.13
2017-03-07T00:40:03.213Z,1008.11
2017-03-07T00:45:03.003Z,1008.25
2017-03-07T00:50:03.153Z,1008.3
2017-03-07T00:55:03.138Z,1008.31
2017-03-07T01:00:02.953Z,1008.38
2017-03-07T01:05:03.360Z,1008.45
2017-03-07T01:10:03.155Z,1008.49
2017-03-07T01:15:03.185Z,1008.53
2017-03-07T01:20:03.000Z,1008.54
2017-03-07T01:25:02.789Z,1008.6
2017-03-07T01:30:03.653Z,1008.65
2017-03-07T01:35:03.482Z,1008.67
2017-03-07T01:40:03.485Z,1008.63
2017-03-07T01:45:03.465Z,1008.77
2017-03-07T01:50:10.496Z,1008.73
2017-03-07T01:55:03.426Z,1008.77
2017-03-07T02:00:10.104Z,1008.79
2017-03-07T02:05:02.914Z,1008.76
2017-03-07T02:10:02.875Z,1008.84
2017-03-07T02:15:02.781Z,1008.9
2017-03-07T02:20:03.497Z,1008.92
2017-03-07T02:25:06.437Z,1009
2017-03-07T02:30:03.150Z,1009.04
2017-03-07T02:35:03.001Z,1009.06
2017-03-07T02:40:03.001Z,1009.12
2017-03-07T02:45:03.042Z,1009.12
2017-03-07T02:50:02.730Z,1009.18
2017-03-07T02:55:03.567Z,1009.2
2017-03-07T03:00:03.289Z,1009.16
2017-03-07T03:05:03.239Z,1009.21
2017-03-07T03:10:03.245Z,1009.25
2017-03-07T03:15:02.938Z,1009.27
2017-03-07T03:20:03.689Z,1009.34
2017-03-07T03:25:03.456Z,1009.36
2017-03-07T03:30:03.187Z,1009.42
2017-03-07T03:35:03.137Z,1009.56
2017-03-07T03:40:02.909Z,1009.61
2017-03-07T03:45:02.743Z,1009.65
2017-03-07T03:50:03.642Z,1009.65
2017-03-07T03:55:03.622Z,1009.73
2017-03-07T04:00:03.522Z,1009.82
2017-03-07T04:05:03.256Z,1009.8
2017-03-07T04:10:03.271Z,1009.86
2017-03-07T04:15:03.123Z,1009.94
2017-03-07T04:20:03.030Z,1010.05
2017-03-07T04:25:02.817Z,1010.03
2017-03-07T04:30:02.753Z,1010.06
2017-03-07T04:35:03.645Z,1010.09
2017-03-07T04:40:02.669Z,1010.11
2017-03-07T04:45:03.482Z,1010.08
2017-03-07T04:50:03.429Z,1010.18
2017-03-07T04:55:02.766Z,1010.16
2017-03-07T05:00:03.612Z,1010.27
2017-03-07T05:05:03.311Z,1010.32
2017-03-07T05:10:03.166Z,1010.35
2017-03-07T05:15:02.977Z,1010.3
2017-03-07T05:20:03.014Z,1010.42
2017-03-07T05:25:02.930Z,1010.42
2017-03-07T05:30:02.944Z,1010.48
2017-03-07T05:35:02.864Z,1010.53
2017-03-07T05:40:02.793Z,1010.58
2017-03-07T05:45:02.783Z,1010.71
2017-03-07T05:50:02.831Z,1010.77
2017-03-07T05:55:03.574Z,1010.83
2017-03-07T06:00:03.522Z,1010.83
2017-03-07T06:05:02.895Z,1010.89
2017-03-07T06:10:03.664Z,1010.92
2017-03-07T06:15:03.438Z,1011.04
2017-03-07T06:20:03.323Z,1011.09
2017-03-07T06:25:03.086Z,1011.13
2017-03-07T06:30:02.803Z,1011.22
2017-03-07T06:35:03.584Z,1011.28
2017-03-07T06:40:03.483Z,1011.31
2017-03-07T06:45:03.248Z,1011.32
2017-03-07T06:50:03.223Z,1011.37
2017-03-07T06:55:03.105Z,1011.41
2017-03-07T07:00:03.023Z,1011.5
2017-03-07T07:05:02.904Z,1011.61
2017-03-07T07:10:02.790Z,1011.72
2017-03-07T07:15:02.917Z,1011.71
2017-03-07T07:20:03.612Z,1011.79
2017-03-07T07:25:03.441Z,1011.87
2017-03-07T07:30:03.295Z,1011.94
2017-03-07T07:35:02.986Z,1012.05
2017-03-07T07:40:02.896Z,1012.2
2017-03-07T07:45:02.893Z,1012.19
2017-03-07T07:50:03.526Z,1012.26
2017-03-07T07:55:03.612Z,1012.33
2017-03-07T08:00:03.449Z,1012.37
2017-03-07T08:05:03.362Z,1012.37
2017-03-07T08:10:03.405Z,1012.35
2017-03-07T08:15:03.382Z,1012.36
2017-03-07T08:20:03.274Z,1012.51
2017-03-07T08:25:03.257Z,1012.63
2017-03-07T08:30:03.169Z,1012.69
2017-03-07T08:35:02.890Z,1012.81
2017-03-07T08:40:02.813Z,1012.82
2017-03-07T08:45:03.761Z,1012.87
2017-03-07T08:50:03.443Z,1012.8
2017-03-07T08:55:03.540Z,1012.84
2017-03-07T09:00:03.431Z,1012.82
2017-03-07T09:05:03.248Z,1012.84
2017-03-07T09:10:03.004Z,1012.89
2017-03-07T09:15:02.856Z,1012.9
2017-03-07T09:20:03.039Z,1012.95
2017-03-07T09:25:02.898Z,1012.96
2017-03-07T09:30:02.780Z,1013.03
2017-03-07T09:35:03.466Z,1013.09
2017-03-07T09:40:03.382Z,1013.14
2017-03-07T09:45:02.820Z,1013.1
2017-03-07T09:50:03.560Z,1013.17
2017-03-07T09:55:03.273Z,1013.28
2017-03-07T10:00:03.163Z,1013.3
2017-03-07T10:05:03.010Z,1013.41
2017-03-07T10:10:03.084Z,1013.48
2017-03-07T10:15:03.096Z,1013.49
2017-03-07T10:20:02.890Z,1013.53
2017-03-07T10:25:02.743Z,1013.58
2017-03-07T10:30:03.687Z,1013.64
2017-03-07T10:35:03.657Z,1013.61
2017-03-07T10:40:03.608Z,1013.63
2017-03-07T10:45:03.524Z,1013.7
2017-03-07T10:50:03.602Z,1013.66
2017-03-07T10:55:03.107Z,1013.67
2017-03-07T11:00:02.761Z,1013.72
2017-03-07T11:05:03.025Z,1013.68
2017-03-07T11:10:03.670Z,1013.81
2017-03-07T11:15:03.548Z,1013.77
2017-03-07T11:20:03.484Z,1013.83
2017-03-07T11:25:03.195Z,1013.91
2017-03-07T11:30:03.237Z,1013.92
2017-03-07T11:35:02.979Z,1013.9
2017-03-07T11:40:02.770Z,1013.92
2017-03-07T11:45:03.606Z,1013.95
2017-03-07T11:50:03.464Z,1014.01
2017-03-07T11:55:03.097Z,1014.08
2017-03-07T12:00:02.912Z,1014.06
2017-03-07T12:05:03.701Z,1014.15
2017-03-07T12:10:03.365Z,1014.23
2017-03-07T12:15:03.503Z,1014.29
2017-03-07T12:20:03.376Z,1014.31
2017-03-07T12:25:03.283Z,1014.34
2017-03-07T12:30:03.308Z,1014.34
2017-03-07T12:35:03.287Z,1014.25
2017-03-07T12:40:03.096Z,1014.27
2017-03-07T12:45:03.185Z,1014.33
2017-03-07T12:50:03.303Z,1014.32
2017-03-07T12:55:03.047Z,1014.44
2017-03-07T13:00:03.205Z,1014.45
2017-03-07T13:05:03.097Z,1014.5
2017-03-07T13:10:03.175Z,1014.52
2017-03-07T13:15:03.182Z,1014.49
2017-03-07T13:20:03.109Z,1014.47
2017-03-07T13:25:02.876Z,1014.47
2017-03-07T13:30:02.756Z,1014.46
2017-03-07T13:35:02.731Z,1014.5
2017-03-07T13:40:03.460Z,1014.53
2017-03-07T13:45:03.446Z,1014.52
2017-03-07T13:50:03.543Z,1014.52
2017-03-07T13:55:03.254Z,1014.56
2017-03-07T14:00:02.923Z,1014.61
2017-03-07T14:05:02.729Z,1014.61
2017-03-07T14:10:02.814Z,1014.61
2017-03-07T14:15:02.964Z,1014.68
2017-03-07T14:20:03.069Z,1014.72
2017-03-07T14:25:03.495Z,1014.93
2017-03-07T14:30:03.367Z,1014.97
2017-03-07T14:35:03.109Z,1014.93
2017-03-07T14:40:03.108Z,1014.94
2017-03-07T14:45:02.788Z,1015.04
2017-03-07T14:50:03.109Z,1015.18
2017-03-07T14:55:03.080Z,1015.27
2017-03-07T15:00:03.012Z,1015.56
2017-03-07T15:05:02.898Z,1015.42
2017-03-07T15:10:03.173Z,1015.46
2017-03-07T15:15:02.979Z,1015.5
2017-03-07T15:20:02.899Z,1015.51
2017-03-07T15:25:02.710Z,1015.43
2017-03-07T15:30:03.486Z,1015.51
2017-03-07T15:35:03.437Z,1015.52
2017-03-07T15:40:03.461Z,1015.52
2017-03-07T15:45:03.323Z,1015.56
2017-03-07T15:50:03.083Z,1015.62
2017-03-07T15:55:03.317Z,1015.62
2017-03-07T16:00:03.447Z,1015.63
2017-03-07T16:05:02.874Z,1015.73
2017-03-07T16:10:02.801Z,1015.77
2017-03-07T16:15:02.714Z,1015.77
2017-03-07T16:20:02.781Z,1015.78
2017-03-07T16:25:03.481Z,1015.92
2017-03-07T16:30:03.267Z,1015.92
2017-03-07T16:35:02.940Z,1015.87
2017-03-07T16:40:03.669Z,1015.98
2017-03-07T16:45:03.568Z,1015.99
2017-03-07T16:50:03.379Z,1016.04
2017-03-07T16:55:02.772Z,1016.17
2017-03-07T17:00:02.715Z,1016.32
2017-03-07T17:05:03.173Z,1016.31
2017-03-07T17:10:03.681Z,1016.44
2017-03-07T17:15:03.390Z,1016.56
2017-03-07T17:20:03.204Z,1016.72
2017-03-07T17:25:03.191Z,1016.78
2017-03-07T17:30:02.841Z,1016.72
2017-03-07T17:35:02.977Z,1016.78
2017-03-07T17:40:02.832Z,1016.92
2017-03-07T17:45:03.313Z,1016.99
2017-03-07T17:50:02.763Z,1017.07
2017-03-07T17:55:03.336Z,1017.14
2017-03-07T18:00:03.103Z,1017.27
2017-03-07T18:05:02.690Z,1017.46
2017-03-07T18:10:03.514Z,1017.51
2017-03-07T18:15:03.339Z,1017.58
2017-03-07T18:20:03.463Z,1017.59
2017-03-07T18:25:03.068Z,1017.56
2017-03-07T18:30:02.854Z,1017.57
2017-03-07T18:35:03.257Z,1017.55
2017-03-07T18:40:03.510Z,1017.63
2017-03-07T18:45:03.197Z,1017.62
2017-03-07T18:50:02.939Z,1017.65
2017-03-07T18:55:03.619Z,1017.66
2017-03-07T19:00:03.095Z,1017.58
2017-03-07T19:05:03.325Z,1017.76
2017-03-07T19:10:03.012Z,1017.8
2017-03-07T19:15:02.798Z,1017.92
2017-03-07T19:20:02.839Z,1017.98
2017-03-07T19:25:02.804Z,1018.01
2017-03-07T19:30:03.209Z,1018.04
2017-03-07T19:35:02.806Z,1018.12
2017-03-07T19:40:03.628Z,1018.26
2017-03-07T19:45:02.970Z,1018.46
2017-03-07T19:50:03.559Z,1018.56
2017-03-07T19:55:02.819Z,1018.62
2017-03-07T20:00:02.927Z,1018.61
2017-03-07T20:05:03.169Z,1018.62
2017-03-07T20:10:03.288Z,1018.65
2017-03-07T20:15:03.670Z,1018.76
2017-03-07T20:20:03.778Z,1018.78
2017-03-07T20:25:02.783Z,1018.71
2017-03-07T20:30:02.823Z,1018.65
2017-03-07T20:35:02.794Z,1018.57
2017-03-07T20:40:03.605Z,1018.59
2017-03-07T20:45:03.045Z,1018.75
2017-03-07T20:50:03.051Z,1018.69
2017-03-07T20:55:02.967Z,1018.55
2017-03-07T21:00:03.464Z,1018.65
2017-03-07T21:05:02.819Z,1018.71
2017-03-07T21:10:03.127Z,1018.8
2017-03-07T21:15:03.310Z,1018.92
2017-03-07T21:20:03.143Z,1019.01
2017-03-07T21:25:03.378Z,1019.08
2017-03-07T21:30:02.825Z,1019.11
2017-03-07T21:35:03.449Z,1019.27
2017-03-07T21:40:03.663Z,1019.35
2017-03-07T21:45:03.213Z,1019.33
2017-03-07T21:50:02.718Z,1019.38
2017-03-07T21:55:03.298Z,1019.37
2017-03-07T22:00:02.885Z,1019.46
2017-03-07T22:05:03.297Z,1019.49
2017-03-07T22:10:03.606Z,1019.56
2017-03-07T22:15:03.247Z,1019.57
2017-03-07T22:20:03.553Z,1019.5
2017-03-07T22:25:02.948Z,1019.54
2017-03-07T22:30:03.333Z,1019.5
2017-03-07T22:35:03.277Z,1019.42
2017-03-07T22:40:03.409Z,1019.37
2017-03-07T22:45:03.412Z,1019.32
2017-03-07T22:50:03.366Z,1019.27
2017-03-07T22:55:03.352Z,1019.36
2017-03-07T23:00:03.191Z,1019.55
2017-03-07T23:05:03.100Z,1019.39
2017-03-07T23:10:02.817Z,1019.4
2017-03-07T23:15:03.609Z,1019.37
2017-03-07T23:20:03.383Z,1019.35
2017-03-07T23:25:03.324Z,1019.25
2017-03-07T23:30:03.214Z,1019.19
2017-03-07T23:35:03.020Z,1019.13
2017-03-07T23:40:02.958Z,1019.15
2017-03-07T23:45:02.702Z,1019.21
2017-03-07T23:50:03.585Z,1019.28
2017-03-07T23:55:03.390Z,1019.27
